Airport View

Enter AWOS ICAO identifier for current METAR.

ex. KFNL

KBKF 011158Z 23003KT 10SM FEW100 05/M02 A3050 RMK AO2A SLP295 T00491022 10091 20029 55001

1 Oct 2020 12:12

Other Area AWOS: KAPA - KDEN - KFTG - KBJC

TAF KBKF 0109/0215 VRB06KT 9999 SKC QNH3027INS TX23/0121Z TN12/0112Z